createdAt,value
2022-10-28T00:00:35.224Z,16.94
2022-10-28T00:01:57.424Z,17.15
2022-10-28T00:03:03.688Z,17.53
2022-10-28T00:04:06.287Z,17.95
2022-10-28T00:05:08.918Z,18.29
2022-10-28T00:06:32.547Z,18.56
2022-10-28T00:07:34.274Z,18.82
2022-10-28T00:08:36.547Z,18.96
2022-10-28T00:09:38.254Z,19.06
2022-10-28T00:10:40.139Z,19.05
2022-10-28T00:11:41.832Z,18.74
2022-10-28T00:12:43.485Z,18.24
2022-10-28T00:13:45.804Z,17.76
2022-10-28T00:14:47.482Z,17.29
2022-10-28T00:15:49.128Z,16.88
2022-10-28T00:16:51.193Z,16.66
2022-10-28T00:17:54.118Z,16.82
2022-10-28T00:18:59.107Z,17.20
2022-10-28T00:20:01.103Z,17.62
2022-10-28T00:21:06.226Z,17.97
2022-10-28T00:22:07.911Z,18.27
2022-10-28T00:23:09.578Z,18.53
2022-10-28T00:24:13.382Z,18.73
2022-10-28T00:25:15.263Z,18.89
2022-10-28T00:26:22.997Z,18.99
2022-10-28T00:27:24.648Z,18.80
2022-10-28T00:28:26.260Z,18.35
2022-10-28T00:29:27.884Z,17.84
2022-10-28T00:31:37.747Z,16.89
2022-10-28T00:32:39.379Z,16.50
2022-10-28T00:33:41.826Z,16.39
2022-10-28T00:34:43.490Z,16.64
2022-10-28T00:35:45.234Z,17.03
2022-10-28T00:36:48.320Z,17.42
2022-10-28T00:37:53.207Z,17.77
2022-10-28T00:38:56.424Z,18.05
2022-10-28T00:39:58.049Z,18.27
2022-10-28T00:40:59.900Z,18.44
2022-10-28T00:42:04.655Z,18.59
2022-10-28T00:43:06.447Z,18.71
2022-10-28T00:44:42.104Z,18.81
2022-10-28T00:45:43.810Z,18.85
2022-10-28T00:46:49.212Z,18.56
2022-10-28T00:47:57.552Z,18.03
2022-10-28T00:49:18.290Z,17.49
2022-10-28T00:50:43.907Z,16.93
2022-10-28T00:51:52.722Z,16.56
2022-10-28T00:53:01.866Z,16.76
2022-10-28T00:54:06.271Z,17.17
2022-10-28T00:55:09.074Z,17.56
2022-10-28T00:56:12.983Z,17.88
2022-10-28T00:57:19.215Z,18.16
2022-10-28T00:58:25.715Z,18.42
2022-10-28T00:59:33.867Z,18.62
2022-10-28T01:00:35.576Z,18.79
2022-10-28T01:01:37.613Z,18.88
2022-10-28T01:02:46.663Z,18.72
2022-10-28T01:03:48.484Z,18.22
2022-10-28T01:04:51.123Z,17.72
2022-10-28T01:05:53.497Z,17.26
2022-10-28T01:06:56.329Z,16.84
2022-10-28T01:08:01.259Z,16.55
2022-10-28T01:09:03.328Z,16.67
2022-10-28T01:10:07.106Z,17.05
2022-10-28T01:11:33.694Z,17.48
2022-10-28T01:13:11.286Z,17.99
2022-10-28T01:14:41.970Z,18.42
2022-10-28T01:16:01.320Z,18.73
2022-10-28T01:17:14.941Z,18.86
2022-10-28T01:18:35.747Z,18.61
2022-10-28T01:20:18.848Z,17.99
2022-10-28T01:21:57.585Z,17.23
2022-10-28T01:23:16.252Z,16.63
2022-10-28T01:24:37.581Z,16.43
2022-10-28T01:26:36.583Z,16.80
2022-10-28T01:27:55.358Z,17.57
2022-10-28T01:29:28.156Z,17.99
2022-10-28T01:30:53.827Z,18.36
2022-10-28T01:32:18.553Z,18.62
2022-10-28T01:34:02.858Z,18.73
2022-10-28T01:35:13.492Z,18.16
2022-10-28T01:36:38.808Z,17.59
2022-10-28T01:37:48.664Z,16.96
2022-10-28T01:38:58.495Z,16.51
2022-10-28T01:40:12.218Z,16.27
2022-10-28T01:41:33.794Z,16.52
2022-10-28T01:42:55.673Z,17.04
2022-10-28T01:44:09.191Z,17.50
2022-10-28T01:45:35.726Z,17.81
2022-10-28T01:46:47.347Z,18.09
2022-10-28T01:48:02.956Z,18.26
2022-10-28T01:49:14.159Z,18.40
2022-10-28T01:50:22.603Z,18.45
2022-10-28T01:51:38.010Z,18.13
2022-10-28T01:52:44.106Z,17.50
2022-10-28T01:53:51.306Z,16.93
2022-10-28T01:55:01.407Z,16.41
2022-10-28T01:56:09.696Z,15.95
2022-10-28T01:57:16.143Z,15.89
2022-10-28T01:58:23.559Z,16.21
2022-10-28T01:59:29.768Z,16.64
2022-10-28T02:00:34.532Z,17.02
2022-10-28T02:01:36.824Z,17.32
2022-10-28T02:02:41.198Z,17.57
2022-10-28T02:03:42.944Z,17.77
2022-10-28T02:04:44.641Z,17.94
2022-10-28T02:05:49.158Z,18.06
2022-10-28T02:06:55.797Z,18.18
2022-10-28T02:08:07.014Z,18.30
2022-10-28T02:09:34.041Z,18.41
2022-10-28T02:10:46.085Z,18.14
2022-10-28T02:12:12.482Z,17.60
2022-10-28T02:13:16.236Z,16.90
2022-10-28T02:14:36.690Z,16.44
2022-10-28T02:15:51.377Z,16.02
2022-10-28T02:17:10.465Z,16.19
2022-10-28T02:18:40.939Z,16.68
2022-10-28T02:19:57.641Z,17.23
2022-10-28T02:21:11.074Z,17.59
2022-10-28T02:22:24.815Z,17.85
2022-10-28T02:23:34.024Z,18.04
2022-10-28T02:24:47.433Z,18.19
2022-10-28T02:26:20.922Z,18.35
2022-10-28T02:27:56.413Z,18.12
2022-10-28T02:29:28.336Z,17.41
2022-10-28T02:30:42.291Z,16.71
2022-10-28T02:32:00.096Z,16.22
2022-10-28T02:33:06.480Z,15.95
2022-10-28T02:34:17.304Z,16.18
2022-10-28T02:35:30.452Z,16.61
2022-10-28T02:36:40.050Z,17.07
2022-10-28T02:37:46.759Z,17.44
2022-10-28T02:38:58.169Z,17.74
2022-10-28T02:40:09.984Z,17.98
2022-10-28T02:41:26.905Z,18.15
2022-10-28T02:42:38.050Z,18.19
2022-10-28T02:43:44.211Z,17.82
2022-10-28T02:44:53.413Z,17.30
2022-10-28T02:46:00.575Z,16.75
2022-10-28T02:47:13.826Z,16.26
2022-10-28T02:48:26.345Z,15.81
2022-10-28T02:49:32.211Z,15.74
2022-10-28T02:50:39.692Z,16.07
2022-10-28T02:51:52.310Z,16.50
2022-10-28T02:52:59.159Z,16.93
2022-10-28T02:54:13.298Z,17.24
2022-10-28T02:55:15.270Z,17.52
2022-10-28T02:56:21.349Z,17.71
2022-10-28T02:57:26.784Z,17.88
2022-10-28T02:58:29.503Z,17.93
2022-10-28T02:59:31.128Z,17.66
2022-10-28T03:00:32.836Z,17.20
2022-10-28T03:01:34.598Z,16.70
2022-10-28T03:02:36.839Z,16.24
2022-10-28T03:03:38.581Z,15.83
2022-10-28T03:04:40.249Z,15.50
2022-10-28T03:05:41.915Z,15.45
2022-10-28T03:06:43.559Z,15.75
2022-10-28T03:07:45.219Z,16.16
2022-10-28T03:08:47.056Z,16.58
2022-10-28T03:09:48.727Z,16.92
2022-10-28T03:10:50.349Z,17.21
2022-10-28T03:11:52.123Z,17.44
2022-10-28T03:12:53.775Z,17.64
2022-10-28T03:13:55.489Z,17.77
2022-10-28T03:14:57.078Z,17.62
2022-10-28T03:15:58.673Z,17.20
2022-10-28T03:17:00.313Z,16.70
2022-10-28T03:18:01.989Z,16.24
2022-10-28T03:19:03.725Z,15.80
2022-10-28T03:20:05.951Z,15.41
2022-10-28T03:21:07.852Z,15.18
2022-10-28T03:22:09.505Z,15.31
2022-10-28T03:23:11.158Z,15.68
2022-10-28T03:24:12.888Z,16.09
2022-10-28T03:25:14.614Z,16.45
2022-10-28T03:26:16.264Z,16.74
2022-10-28T03:27:17.928Z,16.99
2022-10-28T03:28:20.205Z,17.19
2022-10-28T03:29:21.940Z,17.36
2022-10-28T03:30:23.648Z,17.47
2022-10-28T03:31:25.300Z,17.36
2022-10-28T03:32:27.046Z,16.97
2022-10-28T03:33:28.691Z,16.47
2022-10-28T03:34:30.327Z,15.98
2022-10-28T03:35:31.983Z,15.53
2022-10-28T03:36:33.703Z,15.11
2022-10-28T03:37:35.892Z,14.84
2022-10-28T03:38:37.543Z,14.98
2022-10-28T03:39:39.387Z,15.35
2022-10-28T03:40:41.057Z,15.78
2022-10-28T03:41:42.711Z,16.16
2022-10-28T03:42:44.473Z,16.45
2022-10-28T03:43:46.216Z,16.69
2022-10-28T03:44:47.952Z,16.90
2022-10-28T03:45:49.598Z,17.07
2022-10-28T03:46:51.280Z,17.21
2022-10-28T03:47:53.362Z,17.35
2022-10-28T03:48:55.282Z,17.42
2022-10-28T03:49:56.907Z,17.24
2022-10-28T03:50:58.559Z,16.80
2022-10-28T03:52:00.201Z,16.32
2022-10-28T03:53:01.964Z,15.84
2022-10-28T03:54:03.728Z,15.42
2022-10-28T03:55:05.770Z,15.12
2022-10-28T03:56:08.670Z,15.20
2022-10-28T03:57:10.392Z,15.56
2022-10-28T03:58:12.042Z,15.96
2022-10-28T03:59:16.348Z,16.32
2022-10-28T04:00:21.301Z,16.65
2022-10-28T04:01:23.113Z,16.90
2022-10-28T04:02:24.895Z,17.11
2022-10-28T04:03:26.847Z,17.27
2022-10-28T04:04:30.784Z,17.42
2022-10-28T04:05:32.703Z,17.51
2022-10-28T04:06:34.335Z,17.29
2022-10-28T04:07:36.014Z,16.85
2022-10-28T04:08:37.974Z,16.37
2022-10-28T04:09:39.652Z,15.90
2022-10-28T04:10:46.247Z,15.47
2022-10-28T04:11:51.906Z,15.08
2022-10-28T04:12:54.150Z,15.08
2022-10-28T04:13:56.010Z,15.42
2022-10-28T04:14:57.657Z,15.84
2022-10-28T04:15:59.614Z,16.24
2022-10-28T04:17:01.286Z,16.56
2022-10-28T04:18:03.948Z,16.83
2022-10-28T04:19:05.628Z,17.05
2022-10-28T04:20:08.240Z,17.22
2022-10-28T04:21:09.954Z,17.35
2022-10-28T04:22:11.726Z,17.24
2022-10-28T04:23:16.320Z,16.84
2022-10-28T04:24:18.023Z,16.32
2022-10-28T04:25:19.646Z,15.84
2022-10-28T04:26:21.352Z,15.40
2022-10-28T04:27:23.055Z,15.00
2022-10-28T04:28:24.762Z,14.81
2022-10-28T04:29:26.429Z,15.00
2022-10-28T04:30:28.073Z,15.38
2022-10-28T04:31:29.833Z,15.77
2022-10-28T04:32:31.629Z,16.10
2022-10-28T04:33:33.327Z,16.37
2022-10-28T04:34:34.995Z,16.59
2022-10-28T04:35:39.195Z,16.76
2022-10-28T04:36:40.876Z,16.90
2022-10-28T04:37:42.580Z,17.02
2022-10-28T04:38:44.545Z,17.05
2022-10-28T04:39:46.191Z,16.77
2022-10-28T04:40:49.174Z,16.29
2022-10-28T04:41:50.863Z,15.75
2022-10-28T04:42:52.664Z,15.25
2022-10-28T04:43:56.298Z,14.80
2022-10-28T04:44:58.348Z,14.44
2022-10-28T04:46:05.868Z,14.45
2022-10-28T04:47:08.026Z,14.79
2022-10-28T04:48:10.740Z,15.18
2022-10-28T04:49:12.435Z,15.55
2022-10-28T04:50:14.480Z,15.85
2022-10-28T04:51:16.324Z,16.11
2022-10-28T04:52:18.153Z,16.31
2022-10-28T04:53:19.828Z,16.48
2022-10-28T04:54:22.069Z,16.63
2022-10-28T04:55:23.972Z,16.75
2022-10-28T04:56:25.617Z,16.82
2022-10-28T04:57:27.343Z,16.63
2022-10-28T04:58:28.971Z,16.18
2022-10-28T04:59:30.598Z,15.67
2022-10-28T05:00:32.380Z,15.17
2022-10-28T05:01:34.116Z,14.73
2022-10-28T05:02:35.987Z,14.40
2022-10-28T05:03:37.883Z,14.45
2022-10-28T05:04:39.639Z,14.78
2022-10-28T05:05:41.321Z,15.20
2022-10-28T05:06:43.039Z,15.59
2022-10-28T05:07:45.424Z,15.93
2022-10-28T05:08:47.107Z,16.19
2022-10-28T05:09:48.739Z,16.40
2022-10-28T05:10:51.173Z,16.56
2022-10-28T05:11:52.887Z,16.71
2022-10-28T05:12:54.623Z,16.82
2022-10-28T05:13:56.325Z,16.88
2022-10-28T05:14:57.926Z,16.67
2022-10-28T05:15:59.584Z,16.23
2022-10-28T05:17:01.236Z,15.71
2022-10-28T05:18:03.027Z,15.22
2022-10-28T05:19:04.844Z,14.78
2022-10-28T05:20:08.240Z,14.45
2022-10-28T05:21:09.896Z,14.50
2022-10-28T05:22:11.589Z,14.84
2022-10-28T05:23:13.370Z,15.27
2022-10-28T05:24:15.008Z,15.65
2022-10-28T05:25:18.501Z,15.97
2022-10-28T05:26:20.212Z,16.22
2022-10-28T05:27:21.856Z,16.41
2022-10-28T05:28:23.609Z,16.56
2022-10-28T05:29:27.694Z,16.68
2022-10-28T05:30:31.410Z,16.78
2022-10-28T05:31:33.046Z,16.82
2022-10-28T05:32:34.733Z,16.57
2022-10-28T05:33:36.477Z,16.09
2022-10-28T05:34:38.301Z,15.55
2022-10-28T05:35:40.127Z,15.03
2022-10-28T05:36:41.771Z,14.57
2022-10-28T05:37:43.834Z,14.19
2022-10-28T05:38:45.606Z,14.15
2022-10-28T05:39:47.411Z,14.44
2022-10-28T05:40:49.140Z,14.82
2022-10-28T05:41:50.785Z,15.20
2022-10-28T05:42:52.805Z,15.53
2022-10-28T05:43:54.701Z,15.79
2022-10-28T05:44:56.373Z,16.01
2022-10-28T05:45:58.342Z,16.17
2022-10-28T05:46:59.988Z,16.31
2022-10-28T05:48:01.895Z,16.43
2022-10-28T05:49:04.321Z,16.54
2022-10-28T05:50:06.365Z,16.63
2022-10-28T05:51:08.104Z,16.73
2022-10-28T05:52:09.776Z,16.79
2022-10-28T05:53:11.421Z,16.64
2022-10-28T05:54:13.090Z,16.21
2022-10-28T05:55:16.210Z,15.67
2022-10-28T05:56:18.586Z,15.13
2022-10-28T05:57:20.257Z,14.67
2022-10-28T05:58:21.973Z,14.32
2022-10-28T05:59:23.764Z,14.37
2022-10-28T06:00:27.272Z,14.69
2022-10-28T06:01:29.143Z,15.10
2022-10-28T06:02:30.939Z,15.45
2022-10-28T06:03:32.719Z,15.75
2022-10-28T06:04:34.620Z,16.01
2022-10-28T06:05:43.981Z,16.22
2022-10-28T06:06:45.768Z,16.42
2022-10-28T06:07:47.513Z,16.56
2022-10-28T06:08:49.314Z,16.68
2022-10-28T06:09:51.194Z,16.79
2022-10-28T06:10:56.330Z,16.88
2022-10-28T06:11:58.146Z,16.88
2022-10-28T06:13:00.342Z,16.56
2022-10-28T06:14:02.332Z,16.06
2022-10-28T06:15:04.552Z,15.54
2022-10-28T06:16:07.179Z,15.03
2022-10-28T06:17:08.826Z,14.59
2022-10-28T06:18:11.274Z,14.32
2022-10-28T06:19:14.135Z,14.45
2022-10-28T06:20:17.662Z,14.81
2022-10-28T06:21:19.347Z,15.20
2022-10-28T06:22:21.658Z,15.55
2022-10-28T06:23:25.720Z,15.83
2022-10-28T06:24:27.453Z,16.06
2022-10-28T06:25:29.135Z,16.24
2022-10-28T06:26:30.796Z,16.39
2022-10-28T06:27:32.459Z,16.53
2022-10-28T06:28:34.423Z,16.64
2022-10-28T06:29:36.093Z,16.73
2022-10-28T06:30:37.762Z,16.81
2022-10-28T06:31:42.964Z,16.89
2022-10-28T06:32:44.624Z,16.91
2022-10-28T06:33:46.226Z,16.65
2022-10-28T06:34:47.855Z,16.15
2022-10-28T06:35:49.625Z,15.62
2022-10-28T06:36:51.788Z,15.10
2022-10-28T06:37:55.311Z,14.66
2022-10-28T06:38:57.282Z,14.29
2022-10-28T06:39:59.309Z,14.31
2022-10-28T06:41:01.656Z,14.61
2022-10-28T06:42:03.722Z,15.01
2022-10-28T06:43:07.104Z,15.38
2022-10-28T06:44:08.835Z,15.69
2022-10-28T06:45:10.493Z,15.94
2022-10-28T06:46:12.429Z,16.16
2022-10-28T06:47:15.947Z,16.30
2022-10-28T06:48:17.653Z,16.41
2022-10-28T06:49:19.322Z,16.51
2022-10-28T06:50:20.967Z,16.63
2022-10-28T06:51:23.746Z,16.73
2022-10-28T06:52:25.421Z,16.82
2022-10-28T06:53:27.155Z,16.91
2022-10-28T06:54:28.831Z,16.96
2022-10-28T06:55:31.420Z,17.01
2022-10-28T06:56:33.449Z,17.05
2022-10-28T06:57:35.145Z,17.10
2022-10-28T06:58:37.215Z,17.18
2022-10-28T06:59:39.709Z,17.24
2022-10-28T07:00:43.691Z,17.30
2022-10-28T07:01:45.535Z,17.32
2022-10-28T07:02:52.622Z,17.35
2022-10-28T07:03:54.333Z,17.41
2022-10-28T07:04:56.004Z,17.48
2022-10-28T07:05:57.666Z,17.54
2022-10-28T07:06:59.342Z,17.62
2022-10-28T07:08:01.031Z,17.67
2022-10-28T07:09:02.772Z,17.71
2022-10-28T07:10:05.909Z,17.77
2022-10-28T07:11:08.340Z,17.80
2022-10-28T07:12:10.114Z,17.83
2022-10-28T07:13:11.914Z,17.87
2022-10-28T07:14:13.556Z,17.92
2022-10-28T07:15:15.286Z,17.95
2022-10-28T07:16:16.994Z,17.99
2022-10-28T07:17:18.645Z,17.99
2022-10-28T07:18:21.341Z,18.02
2022-10-28T07:19:23.022Z,18.04
2022-10-28T07:20:27.363Z,18.04
2022-10-28T07:21:29.865Z,18.06
2022-10-28T07:22:31.551Z,18.07
2022-10-28T07:23:34.215Z,17.89
2022-10-28T07:24:35.887Z,17.42
2022-10-28T07:25:37.966Z,16.88
2022-10-28T07:26:40.061Z,16.37
2022-10-28T07:27:41.721Z,15.89
2022-10-28T07:28:43.401Z,15.54
2022-10-28T07:29:45.189Z,15.56
2022-10-28T07:30:46.975Z,15.85
2022-10-28T07:31:48.735Z,16.21
2022-10-28T07:32:50.435Z,16.59
2022-10-28T07:33:53.523Z,16.89
2022-10-28T07:34:55.195Z,17.15
2022-10-28T07:35:56.929Z,17.37
2022-10-28T07:36:58.649Z,17.54
2022-10-28T07:38:00.395Z,17.69
2022-10-28T07:39:02.374Z,17.81
2022-10-28T07:40:04.693Z,17.93
2022-10-28T07:41:09.275Z,18.04
2022-10-28T07:42:11.034Z,18.15
2022-10-28T07:43:12.710Z,18.23
2022-10-28T07:44:14.832Z,18.35
2022-10-28T07:45:17.921Z,18.46
2022-10-28T07:46:20.033Z,18.55
2022-10-28T07:47:22.256Z,18.64
2022-10-28T07:48:24.504Z,18.72
2022-10-28T07:49:26.266Z,18.74
2022-10-28T07:50:27.891Z,18.56
2022-10-28T07:51:29.967Z,18.12
2022-10-28T07:52:31.815Z,17.63
2022-10-28T07:53:34.446Z,17.15
2022-10-28T07:54:36.134Z,16.73
2022-10-28T07:55:37.909Z,16.60
2022-10-28T07:56:39.760Z,16.85
2022-10-28T07:57:41.430Z,17.24
2022-10-28T07:58:45.125Z,17.64
2022-10-28T07:59:46.761Z,18.00
2022-10-28T08:00:48.787Z,18.25
2022-10-28T08:01:50.654Z,18.49
2022-10-28T08:02:52.319Z,18.69
2022-10-28T08:03:54.087Z,18.86
2022-10-28T08:04:56.822Z,18.99
2022-10-28T08:06:13.313Z,19.11
2022-10-28T08:07:16.301Z,19.23
2022-10-28T08:08:18.031Z,19.30
2022-10-28T08:09:19.726Z,19.37
2022-10-28T08:10:21.379Z,19.43
2022-10-28T08:11:24.394Z,19.28
2022-10-28T08:12:27.611Z,18.84
2022-10-28T08:13:29.221Z,18.29
2022-10-28T08:14:30.853Z,17.78
2022-10-28T08:15:32.852Z,17.30
2022-10-28T08:16:34.562Z,16.89
2022-10-28T08:17:36.332Z,16.69
2022-10-28T08:18:39.424Z,16.87
2022-10-28T08:19:41.106Z,17.21
2022-10-28T08:20:42.742Z,17.54
2022-10-28T08:21:44.400Z,17.84
2022-10-28T08:22:46.663Z,18.12
2022-10-28T08:23:48.832Z,18.34
2022-10-28T08:24:50.483Z,18.54
2022-10-28T08:25:53.529Z,18.66
2022-10-28T08:26:55.318Z,18.75
2022-10-28T08:27:58.076Z,18.82
2022-10-28T08:29:01.535Z,18.89
2022-10-28T08:30:05.120Z,18.94
2022-10-28T08:31:09.549Z,19.01
2022-10-28T08:32:11.515Z,19.07
2022-10-28T08:33:14.971Z,19.13
2022-10-28T08:34:16.811Z,19.20
2022-10-28T08:35:18.551Z,19.24
2022-10-28T08:36:20.223Z,19.29
2022-10-28T08:37:22.234Z,19.30
2022-10-28T08:38:24.225Z,19.20
2022-10-28T08:39:25.839Z,18.87
2022-10-28T08:40:57.105Z,18.36
2022-10-28T08:42:32.903Z,17.62
2022-10-28T08:43:58.084Z,16.96
2022-10-28T08:45:34.620Z,16.91
2022-10-28T08:47:01.950Z,17.43
2022-10-28T08:48:31.326Z,17.94
2022-10-28T08:49:40.019Z,18.35
2022-10-28T08:50:51.632Z,18.62
2022-10-28T08:52:06.031Z,18.84
2022-10-28T08:53:15.518Z,19.04
2022-10-28T08:54:27.499Z,19.20
2022-10-28T08:55:39.825Z,19.29
2022-10-28T08:56:46.140Z,19.42
2022-10-28T08:58:07.432Z,19.51
2022-10-28T08:59:17.618Z,19.58
2022-10-28T09:00:27.116Z,19.68
2022-10-28T09:01:49.131Z,19.77
2022-10-28T09:03:14.820Z,19.88
2022-10-28T09:04:44.844Z,20.01
2022-10-28T09:05:50.086Z,20.09
2022-10-28T09:06:52.393Z,20.16
2022-10-28T09:07:57.511Z,20.03
2022-10-28T09:08:59.333Z,19.62
2022-10-28T09:10:01.023Z,19.13
2022-10-28T09:11:08.857Z,18.67
2022-10-28T09:12:22.432Z,18.22
2022-10-28T09:13:41.588Z,17.87
2022-10-28T09:15:01.440Z,18.04
2022-10-28T09:16:11.235Z,18.58
2022-10-28T09:17:21.311Z,19.03
2022-10-28T09:18:32.287Z,19.37
2022-10-28T09:19:33.912Z,19.67
2022-10-28T09:20:45.516Z,19.87
2022-10-28T09:21:51.009Z,20.07
2022-10-28T09:22:58.994Z,20.16
2022-10-28T09:24:19.494Z,20.26
2022-10-28T09:25:53.354Z,20.39
2022-10-28T09:27:10.115Z,20.50
2022-10-28T09:28:36.255Z,20.44
2022-10-28T09:29:50.519Z,19.90
2022-10-28T09:31:13.734Z,19.35
2022-10-28T09:32:39.290Z,18.81
2022-10-28T09:33:51.233Z,18.34
2022-10-28T09:35:10.866Z,18.21
2022-10-28T09:36:21.245Z,18.63
2022-10-28T09:37:32.863Z,19.12
2022-10-28T09:38:40.788Z,19.61
2022-10-28T09:39:47.995Z,19.98
2022-10-28T09:41:01.097Z,20.28
2022-10-28T09:42:04.609Z,20.54
2022-10-28T09:43:19.388Z,20.70
2022-10-28T09:44:41.396Z,20.67
2022-10-28T09:45:48.153Z,20.25
2022-10-28T09:46:57.108Z,19.80
2022-10-28T09:48:04.177Z,19.36
2022-10-28T09:49:15.475Z,19.00
2022-10-28T09:50:22.761Z,18.68
2022-10-28T09:51:55.268Z,18.42
2022-10-28T09:53:20.398Z,18.50
2022-10-28T09:54:33.025Z,19.11
2022-10-28T09:55:35.101Z,19.68
2022-10-28T09:56:38.033Z,20.10
2022-10-28T09:57:39.684Z,20.45
2022-10-28T09:58:49.333Z,20.72
2022-10-28T09:59:51.546Z,20.92
2022-10-28T10:00:53.264Z,20.89
2022-10-28T10:01:55.199Z,20.63
2022-10-28T10:02:59.021Z,20.25
2022-10-28T10:04:01.488Z,19.84
2022-10-28T10:05:03.602Z,19.51
2022-10-28T10:06:19.216Z,19.22
2022-10-28T10:07:37.562Z,18.91
2022-10-28T10:08:41.516Z,18.66
2022-10-28T10:09:45.036Z,18.51
2022-10-28T10:10:57.599Z,18.68
2022-10-28T10:12:10.526Z,19.23
2022-10-28T10:13:16.992Z,19.86
2022-10-28T10:14:26.807Z,20.41
2022-10-28T10:15:40.235Z,20.88
2022-10-28T10:17:17.301Z,21.27
2022-10-28T10:18:24.838Z,21.43
2022-10-28T10:19:26.539Z,21.14
2022-10-28T10:20:28.218Z,20.79
2022-10-28T10:21:48.336Z,20.45
2022-10-28T10:22:50.280Z,20.07
2022-10-28T10:23:51.900Z,19.83
2022-10-28T10:24:53.515Z,19.62
2022-10-28T10:26:09.679Z,19.47
2022-10-28T10:27:19.831Z,19.31
2022-10-28T10:28:22.300Z,19.20
2022-10-28T10:29:24.956Z,19.11
2022-10-28T10:30:35.397Z,19.04
2022-10-28T10:31:37.035Z,19.01
2022-10-28T10:32:38.738Z,19.27
2022-10-28T10:33:40.988Z,19.81
2022-10-28T10:34:49.854Z,20.42
2022-10-28T10:36:03.988Z,21.06
2022-10-28T10:37:05.714Z,21.62
2022-10-28T10:38:07.936Z,21.99
2022-10-28T10:39:26.844Z,22.11
2022-10-28T10:40:33.569Z,21.89
2022-10-28T10:41:36.697Z,21.62
2022-10-28T10:42:46.571Z,21.34
2022-10-28T10:43:59.233Z,21.03
2022-10-28T10:45:16.106Z,20.85
2022-10-28T10:46:18.003Z,20.68
2022-10-28T10:47:20.900Z,20.56
2022-10-28T10:48:22.608Z,20.48
2022-10-28T10:49:24.281Z,20.42
2022-10-28T10:51:41.288Z,20.36
2022-10-28T10:52:50.793Z,20.35
2022-10-28T10:53:57.820Z,20.35
2022-10-28T10:55:22.188Z,20.37
2022-10-28T10:56:34.053Z,20.40
2022-10-28T10:57:35.971Z,20.44
2022-10-28T10:58:51.618Z,20.46
2022-10-28T10:59:56.346Z,20.49
2022-10-28T11:01:02.565Z,20.51
2022-10-28T11:02:22.371Z,20.52
2022-10-28T11:03:30.274Z,20.53
2022-10-28T11:04:36.755Z,20.54
2022-10-28T11:05:48.019Z,20.53
2022-10-28T11:06:58.155Z,20.55
2022-10-28T11:08:04.936Z,20.57
2022-10-28T11:09:26.980Z,20.60
2022-10-28T11:10:32.282Z,20.66
2022-10-28T11:11:39.926Z,20.70
2022-10-28T11:12:53.315Z,20.76
2022-10-28T11:14:08.843Z,20.85
2022-10-28T11:15:16.621Z,20.94
2022-10-28T11:16:24.612Z,21.02
2022-10-28T11:17:35.507Z,21.09
2022-10-28T11:18:43.836Z,21.14
2022-10-28T11:19:45.436Z,21.18
2022-10-28T11:21:05.637Z,21.22
2022-10-28T11:22:25.642Z,21.28
2022-10-28T11:23:54.669Z,21.37
2022-10-28T11:25:10.195Z,21.46
2022-10-28T11:26:17.973Z,21.54
2022-10-28T11:28:03.071Z,21.61
2022-10-28T11:29:14.853Z,21.73
2022-10-28T11:30:20.679Z,21.80
2022-10-28T11:31:50.152Z,21.86
2022-10-28T11:33:31.952Z,21.94
2022-10-28T11:35:09.081Z,22.02
2022-10-28T11:36:17.679Z,22.11
2022-10-28T11:37:40.921Z,22.17
2022-10-28T11:39:07.735Z,22.26
2022-10-28T11:40:42.465Z,22.35
2022-10-28T11:41:59.975Z,22.43
2022-10-28T11:43:19.636Z,22.51
2022-10-28T11:44:43.756Z,22.58
2022-10-28T11:45:59.469Z,22.67
2022-10-28T11:47:21.737Z,22.74
2022-10-28T11:49:05.106Z,22.81
2022-10-28T11:50:54.509Z,22.87
2022-10-28T11:52:03.260Z,22.95
2022-10-28T11:53:37.220Z,23.02
2022-10-28T11:55:14.300Z,23.13
2022-10-28T11:56:28.090Z,23.23
2022-10-28T11:58:05.196Z,23.27
2022-10-28T11:59:30.364Z,23.34
2022-10-28T12:00:53.749Z,23.39
2022-10-28T12:02:07.507Z,23.48
2022-10-28T12:03:27.705Z,23.55
2022-10-28T12:04:53.967Z,23.61
2022-10-28T12:06:15.140Z,23.66
2022-10-28T12:08:00.557Z,23.70
2022-10-28T12:09:32.773Z,23.79
2022-10-28T12:10:50.539Z,23.90
2022-10-28T12:12:05.682Z,24.01
2022-10-28T12:13:24.020Z,24.09
2022-10-28T12:14:44.638Z,24.17
2022-10-28T12:15:59.668Z,24.26
2022-10-28T12:17:30.465Z,24.33
2022-10-28T12:18:47.948Z,24.44
2022-10-28T12:20:20.697Z,24.52
2022-10-28T12:23:00.999Z,24.69
2022-10-28T12:24:10.797Z,24.78
2022-10-28T12:25:23.946Z,24.86
2022-10-28T12:26:40.108Z,24.98
2022-10-28T12:27:48.023Z,25.08
2022-10-28T12:28:57.215Z,25.14
2022-10-28T12:30:23.773Z,25.17
2022-10-28T12:31:30.813Z,25.17
2022-10-28T12:32:36.085Z,25.15
2022-10-28T12:33:50.225Z,25.13
2022-10-28T12:35:02.066Z,25.12
2022-10-28T12:36:03.933Z,25.11
2022-10-28T12:37:14.087Z,25.10
2022-10-28T12:38:34.479Z,25.10
2022-10-28T12:39:49.597Z,25.12
2022-10-28T12:41:25.884Z,25.14
2022-10-28T12:42:55.067Z,25.14
2022-10-28T12:44:13.982Z,25.14
2022-10-28T12:45:19.117Z,25.18
2022-10-28T12:46:53.987Z,25.22
2022-10-28T12:48:12.139Z,25.32
2022-10-28T12:49:23.950Z,25.37
2022-10-28T12:50:53.001Z,25.38
2022-10-28T12:52:02.748Z,25.30
2022-10-28T12:53:04.256Z,25.18
2022-10-28T12:54:16.147Z,25.07
2022-10-28T12:55:40.993Z,24.96
2022-10-28T12:56:50.627Z,24.89
2022-10-28T12:58:02.509Z,24.89
2022-10-28T12:59:17.283Z,24.91
2022-10-28T13:00:40.529Z,24.95
2022-10-28T13:01:48.824Z,24.99
2022-10-28T13:03:00.694Z,25.01
2022-10-28T13:04:03.188Z,25.02
2022-10-28T13:05:06.590Z,25.03
2022-10-28T13:06:25.770Z,25.04
2022-10-28T13:07:58.664Z,25.05
2022-10-28T13:09:22.089Z,25.07
2022-10-28T13:10:39.948Z,25.05
2022-10-28T13:12:00.886Z,25.04
2022-10-28T13:13:10.941Z,25.05
2022-10-28T13:14:28.944Z,25.06
2022-10-28T13:15:55.692Z,25.06
2022-10-28T13:17:30.595Z,25.01
2022-10-28T13:18:58.216Z,24.95
2022-10-28T13:20:11.444Z,24.93
2022-10-28T13:21:49.814Z,24.91
2022-10-28T13:22:51.345Z,24.84
2022-10-28T13:24:27.295Z,24.79
2022-10-28T13:25:28.818Z,24.67
2022-10-28T13:26:36.753Z,24.56
2022-10-28T13:27:39.284Z,24.44
2022-10-28T13:28:55.046Z,24.32
2022-10-28T13:30:00.713Z,24.20
2022-10-28T13:31:07.206Z,24.08
2022-10-28T13:32:39.891Z,23.98
2022-10-28T13:33:57.951Z,23.84
2022-10-28T13:35:10.334Z,23.74
2022-10-28T13:36:17.874Z,23.61
2022-10-28T13:37:23.997Z,23.49
2022-10-28T13:38:27.199Z,23.37
2022-10-28T13:39:28.789Z,23.24
2022-10-28T13:40:30.337Z,23.13
2022-10-28T13:41:37.680Z,22.99
2022-10-28T13:42:42.037Z,22.85
2022-10-28T13:43:49.560Z,22.72
2022-10-28T13:45:04.806Z,22.61
2022-10-28T13:46:06.563Z,22.51
2022-10-28T13:47:17.251Z,22.42
2022-10-28T13:48:45.371Z,22.35
2022-10-28T13:50:08.916Z,22.27
2022-10-28T13:51:10.689Z,22.19
2022-10-28T13:52:13.241Z,22.11
2022-10-28T13:53:26.686Z,22.04
2022-10-28T13:54:53.891Z,21.96
2022-10-28T13:55:58.853Z,21.88
2022-10-28T13:57:12.659Z,21.80
2022-10-28T13:58:32.662Z,21.73
2022-10-28T14:00:00.987Z,21.66
2022-10-28T14:01:36.752Z,21.57
2022-10-28T14:02:42.251Z,21.47
2022-10-28T14:03:52.005Z,21.43
2022-10-28T14:05:02.837Z,21.38
2022-10-28T14:06:04.859Z,21.35
2022-10-28T14:07:31.552Z,21.35
2022-10-28T14:08:40.056Z,21.38
2022-10-28T14:09:43.544Z,21.45
2022-10-28T14:11:02.766Z,21.51
2022-10-28T14:12:17.351Z,21.61
2022-10-28T14:13:22.484Z,21.70
2022-10-28T14:14:24.215Z,21.78
2022-10-28T14:15:33.776Z,21.88
2022-10-28T14:16:44.883Z,21.97
2022-10-28T14:18:22.652Z,22.06
2022-10-28T14:19:28.889Z,22.21
2022-10-28T14:20:38.157Z,22.28
2022-10-28T14:21:45.677Z,22.36
2022-10-28T14:22:47.586Z,22.42
2022-10-28T14:24:11.327Z,22.44
2022-10-28T14:25:40.892Z,22.45
2022-10-28T14:27:28.744Z,22.43
2022-10-28T14:28:30.479Z,22.37
2022-10-28T14:29:46.604Z,22.31
2022-10-28T14:31:08.177Z,22.24
2022-10-28T14:32:31.695Z,22.14
2022-10-28T14:33:42.331Z,22.04
2022-10-28T14:34:46.039Z,21.95
2022-10-28T14:35:55.471Z,21.86
2022-10-28T14:37:10.350Z,21.76
2022-10-28T14:38:38.621Z,21.67
2022-10-28T14:39:59.590Z,21.56
2022-10-28T14:41:25.819Z,21.44
2022-10-28T14:44:21.788Z,21.21
2022-10-28T14:45:44.881Z,21.10
2022-10-28T14:47:23.911Z,21.00
2022-10-28T14:48:44.516Z,20.87
2022-10-28T14:50:12.789Z,20.78